Tuesday, July 25, 2017, 2:31 AM EDT

KPOU, Poughkeepsie Dutchess Cty

Location: Wappingers Falls, NY, United States Lat: 41.633
Local Time: 2:31 AM EDT ( 6:31 GMT) Lon: -73.883
Time Zone: US/Eastern Elev: 167 ft

Show me the last for .
Show Decoded

2017-07-25 01:53 METAR KPOU 250553Z 00000KT 10SM FEW018 OVC028 16/12 A2998 RMK AO2 SLP148
                 T01560122 10172 20156 51008 =
2017-07-25 01:41 METAR KPOU 250541Z 10003KT 10SM FEW019 OVC030 16/12 A2998 RMK AO2 T01560122 =
2017-07-25 00:53 METAR KPOU 250453Z 13004KT 10SM OVC020 16/12 A2997 RMK AO2 SLP146 T01560122
                 402110156 =
2017-07-24 23:53 METAR KPOU 250353Z 14003KT 10SM OVC020 16/12 A2996 RMK AO2 SLP142 T01610122 =
2017-07-24 22:53 METAR KPOU 250253Z 00000KT 10SM BKN019 OVC038 16/12 A2995 RMK AO2 SLP140
                 T01610122 53020 =
2017-07-24 21:53 METAR KPOU 250153Z 10003KT 10SM OVC020 16/13 A2992 RMK AO2 SLP129 T01610128 =
2017-07-24 21:37 METAR KPOU 250137Z 10003KT 10SM BKN020 OVC043 16/12 A2991 RMK AO2 T01610122 =
2017-07-24 20:53 METAR KPOU 250053Z 06005KT 10SM BKN047 OVC060 17/13 A2990 RMK AO2 SLP121
                 T01670128 =
2017-07-24 19:53 METAR KPOU 242353Z AUTO 10006KT 10SM BKN025 BKN031 17/13 A2989 RMK AO2 SLP120
                 T01720128 10206 20172 53014 =
2017-07-24 18:53 METAR KPOU 242253Z AUTO 08005KT 10SM OVC024 18/14 A2988 RMK AO2 SLP113 T01830139
                 =
2017-07-24 17:53 METAR KPOU 242153Z AUTO 06006KT 10SM OVC026 19/14 A2987 RMK AO2 SLP109 T01890139
                 =
2017-07-24 16:53 METAR KPOU 242053Z AUTO 04003KT 10SM OVC027 20/14 A2986 RMK AO2 SLP105 T02000139
                 53003 =
2017-07-24 15:53 METAR KPOU 241953Z AUTO 36004KT 10SM OVC024 20/14 A2985 RMK AO2 SLP103 T02000144
                 =
2017-07-24 14:53 METAR KPOU 241853Z 36004KT 10SM OVC022 19/14 A2985 RMK AO2 SLP104 T01940139 =
2017-07-24 13:53 METAR KPOU 241753Z 04009KT 10SM OVC022 19/14 A2985 RMK AO2 SLP102 60093
                 T01890139 10189 20156 50005 =
2017-07-24 12:53 METAR KPOU 241653Z 36006KT 10SM BKN017 OVC025 18/14 A2986 RMK AO2 SLP106
                 T01780144 =
2017-07-24 11:56 METAR KPOU 241556Z 36010KT 10SM FEW012 OVC020 18/14 A2985 RMK AO2 T01780144 =
2017-07-24 11:53 METAR KPOU 241553Z 36009KT 10SM FEW036 SCT050 BKN120 17/14 A2985 RMK AO2 SLP104
                 T01720144 =
2017-07-24 10:53 METAR KPOU 241453Z VRB03KT 10SM FEW036 SCT050 BKN120 17/14 A2983 RMK AO2 RAE49
                 SLP098 P0027 60093 T01670144 50003 =
2017-07-24 10:09 METAR KPOU 241409Z 08010KT 1SM +RA BR BKN015 OVC019 16/14 A2982 RMK AO2 PRESFR
                 P0020 T01560139 =
2017-07-24 09:56 METAR KPOU 241356Z 02010KT 2SM RA BR BKN015 OVC019 16/14 A2985 RMK AO2 P0001
                 T01560144 =
2017-07-24 09:53 METAR KPOU 241353Z 01009KT 1 3/4SM +RA BR BKN015 OVC019 16/14 A2985 RMK AO2
                 SLP104 P0043 T01560144 =
2017-07-24 08:53 METAR KPOU 241253Z 36011KT 3/4SM +RA BR BKN015 OVC019 16/15 A2983 RMK AO2 SLP098
                 P0023 T01610150 =
2017-07-24 07:53 METAR KPOU 241153Z 35004KT 2 1/2SM -RA BR BKN023 BKN040 OVC050 17/15 A2982 RMK
                 AO2 SLP095 P0012 60028 70028 T01670150 10206 20167 50001 =
2017-07-24 07:46 METAR KPOU 241146Z 02006KT 2 1/2SM -RA BR BKN023 BKN040 OVC050 17/16 A2982 RMK
                 AO2 P0011 T01670156 =
2017-07-24 07:39 METAR KPOU 241139Z COR 03006KT 2 1/2SM -RA BR SCT022 BKN038 OVC050 17/16 A2982
                 RMK AO2 P0010 T01670156 =
2017-07-24 07:23 METAR KPOU 241123Z 03005KT 2 1/2SM RA BR BKN023 BKN040 OVC050 17/15 A2983 RMK
                 AO2 P0006 T01670150 =
2017-07-24 06:53 METAR KPOU 241053Z 02005KT 6SM -RA BR BKN048 OVC060 17/16 A2983 RMK AO2 SLP095
                 P0008 T01720156 =
2017-07-24 06:33 METAR KPOU 241033Z 01005KT 6SM -RA BR SCT023 OVC060 17/16 A2982 RMK AO2 P0007
                 T01720156 =
2017-07-24 05:53 METAR KPOU 240953Z 01006KT 6SM -RA BR OVC022 18/16 A2982 RMK AO2 RAB13 SLP094
                 P0004 T01780161 =
2017-07-24 05:03 METAR KPOU 240903Z VRB04KT 10SM BKN023 OVC070 18/16 A2982 RMK AO2 T01830156 =
2017-07-24 04:53 METAR KPOU 240853Z 07003KT 10SM SCT025 OVC065 18/15 A2982 RMK AO2 SLP094 60004
                 T01830150 58010 =
2017-07-24 04:41 METAR KPOU 240841Z 00000KT 10SM SCT025 OVC070 18/15 A2982 RMK AO2 T01830150 =
2017-07-24 03:53 METAR KPOU 240753Z 06005KT 10SM OVC021 18/16 A2983 RMK AO2 RAE00 SLP096 P0001
                 T01830156 =
2017-07-24 02:53 METAR KPOU 240653Z 09003KT 9SM -RA SCT023 BKN029 OVC060 19/16 A2984 RMK AO2
                 RAB01 SLP101 P0003 T01890161 =

Support USWX by starting your Amazon purchase here.